Time;durP1;ratioP1;P1;durP2;ratioP2;P2;SDS_P1;SDS_P2;PMS_P1;PMS_P2;Temp;Humidity;BMP_temperature;BMP_pressure;BME280_temperature;BME280_humidity;BME280_pressure;Samples;Min_cycle;Max_cycle;Signal;HPM_P1;HPM_P2
2022/10/26 00:02:13;;;;;;;;;;;17.00;99.90;;;;;;5074613;28;19908;-72
2022/10/26 00:04:39;;;;;;;;;;;17.00;99.90;;;;;;5074693;28;20285;-71
2022/10/26 00:07:05;;;;;;;;;;;17.00;99.90;;;;;;5074304;28;19995;-70
2022/10/26 00:09:30;;;;;;;;;;;17.00;99.90;;;;;;5076486;28;20366;-69
2022/10/26 00:11:59;;;;;;;;;;;17.00;99.90;;;;;;5066400;28;20522;-72
2022/10/26 00:14:25;;;;;;;;;;;17.00;99.90;;;;;;5064267;28;19991;-70
2022/10/26 00:16:51;;;;;;;;;;;16.90;99.90;;;;;;5077346;28;20412;-72
2022/10/26 00:19:16;;;;;;;;;;;17.00;99.90;;;;;;5056616;28;20480;-71
2022/10/26 00:21:42;;;;;;;;;;;17.00;99.90;;;;;;5056010;28;20309;-70
2022/10/26 00:24:11;;;;;;;;;;;17.00;99.90;;;;;;5074474;28;20424;-72
2022/10/26 00:26:37;;;;;;;;;;;17.00;99.90;;;;;;5074795;28;20338;-71
2022/10/26 00:29:04;;;;;;;;;;;17.10;99.90;;;;;;5073967;28;19920;-74
2022/10/26 00:31:29;;;;;;;;;;;17.10;99.90;;;;;;5062907;28;19999;-70
2022/10/26 00:33:55;;;;;;;;;;;17.10;99.90;;;;;;5080309;28;19973;-72
2022/10/26 00:36:22;;;;;;;;;;;17.10;99.90;;;;;;5094764;28;19915;-72
2022/10/26 00:38:49;;;;;;;;;;;17.10;99.90;;;;;;5094733;28;19980;-71
2022/10/26 00:41:16;;;;;;;;;;;17.20;99.90;;;;;;5095093;28;19908;-71
2022/10/26 00:43:41;;;;;;;;;;;17.20;99.90;;;;;;5095377;28;19914;-71
2022/10/26 00:46:10;;;;;;;;;;;17.20;99.90;;;;;;5090550;28;20364;-72
2022/10/26 00:48:38;;;;;;;;;;;17.20;99.90;;;;;;5054471;28;20007;-72
2022/10/26 00:51:07;;;;;;;;;;;17.20;99.90;;;;;;5072992;28;19908;-71
2022/10/26 00:53:34;;;;;;;;;;;17.20;99.90;;;;;;5074806;28;19930;-72
2022/10/26 00:56:00;;;;;;;;;;;17.20;99.90;;;;;;5055997;28;19999;-71
2022/10/26 00:58:25;;;;;;;;;;;17.30;99.90;;;;;;5074582;28;19959;-71
2022/10/26 01:00:51;;;;;;;;;;;17.30;99.90;;;;;;5074610;28;20339;-71
2022/10/26 01:03:17;;;;;;;;;;;17.30;99.90;;;;;;5070651;28;19913;-74
2022/10/26 01:05:44;;;;;;;;;;;17.30;99.90;;;;;;5054930;28;19909;-72
2022/10/26 01:08:10;;;;;;;;;;;17.30;99.90;;;;;;5073191;28;19916;-71
2022/10/26 01:10:37;;;;;;;;;;;17.40;99.90;;;;;;5081933;28;20478;-70
2022/10/26 01:13:04;;;;;;;;;;;17.30;99.90;;;;;;5071217;28;20016;-72
2022/10/26 01:15:33;;;;;;;;;;;17.30;99.90;;;;;;5073954;28;20006;-72
2022/10/26 01:18:10;;;;;;;;;;;17.30;99.90;;;;;;5054346;28;19963;-72
2022/10/26 01:20:39;;;;;;;;;;;17.40;99.90;;;;;;5068334;28;20363;-70
2022/10/26 01:23:15;;;;;;;;;;;17.40;99.90;;;;;;5056092;28;19909;-71
2022/10/26 01:25:53;;;;;;;;;;;17.30;99.90;;;;;;5059457;28;19908;-73
2022/10/26 01:28:25;;;;;;;;;;;17.30;99.90;;;;;;5078162;28;19922;-72
2022/10/26 01:30:52;;;;;;;;;;;17.30;99.90;;;;;;5078098;28;19909;-71
2022/10/26 01:33:25;;;;;;;;;;;17.20;99.90;;;;;;5078240;28;20285;-76
2022/10/26 01:36:03;;;;;;;;;;;17.20;99.90;;;;;;5059222;28;19940;-74
2022/10/26 01:38:31;;;;;;;;;;;17.20;99.90;;;;;;5064969;28;19912;-72
2022/10/26 01:40:57;;;;;;;;;;;17.40;99.90;;;;;;5067130;28;19913;-72
2022/10/26 01:43:24;;;;;;;;;;;17.40;99.90;;;;;;5077848;28;20354;-72
2022/10/26 01:45:51;;;;;;;;;;;17.30;99.90;;;;;;5076810;28;19908;-72
2022/10/26 01:48:19;;;;;;;;;;;17.30;99.90;;;;;;5084544;28;19916;-74
2022/10/26 01:50:46;;;;;;;;;;;17.20;99.90;;;;;;5095949;28;19908;-72
2022/10/26 01:53:15;;;;;;;;;;;17.20;99.90;;;;;;5094894;28;19908;-71
2022/10/26 01:55:46;;;;;;;;;;;17.10;99.90;;;;;;5076491;28;19932;-74
2022/10/26 01:58:18;;;;;;;;;;;17.10;99.90;;;;;;5077301;28;19915;-71
2022/10/26 02:00:46;;;;;;;;;;;17.10;99.90;;;;;;5077674;28;19908;-72
2022/10/26 02:03:18;;;;;;;;;;;17.20;99.90;;;;;;5077697;28;19908;-72
2022/10/26 02:05:54;;;;;;;;;;;17.20;99.90;;;;;;5078483;28;19919;-71
2022/10/26 02:08:22;;;;;;;;;;;17.10;99.90;;;;;;5070655;28;19913;-71
2022/10/26 02:11:15;;;;;;;;;;;17.10;99.90;;;;;;5079387;28;20615;-74
2022/10/26 02:13:46;;;;;;;;;;;17.20;99.90;;;;;;5075377;28;19950;-72
2022/10/26 02:16:16;;;;;;;;;;;17.20;99.90;;;;;;5083835;28;20011;-71
2022/10/26 02:19:00;;;;;;;;;;;17.10;99.90;;;;;;5078247;28;20020;-75
2022/10/26 02:21:41;;;;;;;;;;;17.20;99.90;;;;;;5077960;28;19956;-72
2022/10/26 02:24:09;;;;;;;;;;;17.20;99.90;;;;;;5078733;28;19949;-71
2022/10/26 02:26:35;;;;;;;;;;;17.20;99.90;;;;;;5086399;28;19913;-73
2022/10/26 02:29:03;;;;;;;;;;;17.20;99.90;;;;;;5077350;28;20057;-73
2022/10/26 02:31:30;;;;;;;;;;;17.20;99.90;;;;;;5062401;28;19923;-72
2022/10/26 02:33:56;;;;;;;;;;;17.30;99.90;;;;;;5076694;28;19940;-70
2022/10/26 02:36:25;;;;;;;;;;;17.20;99.90;;;;;;5076492;28;20023;-71
2022/10/26 02:38:54;;;;;;;;;;;17.30;99.90;;;;;;5077160;28;19978;-72
2022/10/26 02:41:21;;;;;;;;;;;17.20;99.90;;;;;;5077144;28;20363;-71
2022/10/26 02:43:51;;;;;;;;;;;17.10;99.90;;;;;;5064831;28;19979;-72
2022/10/26 02:46:19;;;;;;;;;;;17.00;99.90;;;;;;5060288;28;20030;-71
2022/10/26 02:48:45;;;;;;;;;;;16.90;99.90;;;;;;5076801;28;19925;-72
2022/10/26 02:51:29;;;;;;;;;;;16.90;99.90;;;;;;5076210;28;19908;-71
2022/10/26 02:53:58;;;;;;;;;;;16.80;99.90;;;;;;5076944;28;19918;-73
2022/10/26 02:56:27;;;;;;;;;;;16.90;99.90;;;;;;5058066;28;19908;-71
2022/10/26 02:58:54;;;;;;;;;;;16.90;99.90;;;;;;5062969;28;19909;-73
2022/10/26 03:01:20;;;;;;;;;;;16.80;99.90;;;;;;5056410;28;19915;-75
2022/10/26 03:03:46;;;;;;;;;;;16.80;99.90;;;;;;5072908;28;20009;-71
2022/10/26 03:06:19;;;;;;;;;;;16.80;99.90;;;;;;5089204;28;19912;-72
2022/10/26 03:08:44;;;;;;;;;;;16.70;99.90;;;;;;5082262;28;19938;-72
2022/10/26 03:11:10;;;;;;;;;;;16.80;99.90;;;;;;5086481;28;19987;-72
2022/10/26 03:13:36;;;;;;;;;;;16.80;99.90;;;;;;5070806;28;20292;-70
2022/10/26 03:16:01;;;;;;;;;;;16.90;99.90;;;;;;5064535;28;20362;-71
2022/10/26 03:18:27;;;;;;;;;;;16.80;99.90;;;;;;5065784;28;19912;-72
2022/10/26 03:20:53;;;;;;;;;;;16.70;99.90;;;;;;5076335;28;20375;-71
2022/10/26 03:23:18;;;;;;;;;;;16.80;99.90;;;;;;5079918;28;19916;-71
2022/10/26 03:25:44;;;;;;;;;;;16.70;99.90;;;;;;5094091;28;19931;-71
2022/10/26 03:28:10;;;;;;;;;;;16.70;99.90;;;;;;5070090;28;19950;-70
2022/10/26 03:30:36;;;;;;;;;;;16.70;99.90;;;;;;5077224;28;19931;-71
2022/10/26 03:33:01;;;;;;;;;;;16.70;99.90;;;;;;5065310;28;20360;-73
2022/10/26 03:35:27;;;;;;;;;;;16.70;99.90;;;;;;5072323;28;19978;-71
2022/10/26 03:37:53;;;;;;;;;;;16.80;99.90;;;;;;5072601;28;19952;-72
2022/10/26 03:40:19;;;;;;;;;;;16.80;99.90;;;;;;5079406;28;19916;-70
2022/10/26 03:42:45;;;;;;;;;;;16.90;99.90;;;;;;5078313;28;19939;-71
2022/10/26 03:45:10;;;;;;;;;;;16.90;99.90;;;;;;5086904;28;20290;-70
2022/10/26 03:47:41;;;;;;;;;;;16.90;99.90;;;;;;5085309;28;19912;-71
2022/10/26 03:50:07;;;;;;;;;;;16.80;99.90;;;;;;5078897;28;19913;-71
2022/10/26 03:52:33;;;;;;;;;;;16.80;99.90;;;;;;5083837;28;19919;-71
2022/10/26 03:55:02;;;;;;;;;;;16.80;99.90;;;;;;5072857;28;20003;-71
2022/10/26 03:57:27;;;;;;;;;;;16.80;99.90;;;;;;5087945;28;20034;-71
2022/10/26 03:59:53;;;;;;;;;;;16.80;99.90;;;;;;5086190;28;20346;-72
2022/10/26 04:02:19;;;;;;;;;;;16.90;99.90;;;;;;5070801;28;20294;-71
2022/10/26 04:04:44;;;;;;;;;;;16.90;99.90;;;;;;5090256;28;19934;-70
2022/10/26 04:07:10;;;;;;;;;;;16.90;99.90;;;;;;5080124;28;19915;-73
2022/10/26 04:09:36;;;;;;;;;;;16.80;99.90;;;;;;5066659;28;19916;-75
2022/10/26 04:12:01;;;;;;;;;;;16.70;99.90;;;;;;5072918;28;19917;-71
2022/10/26 04:14:27;;;;;;;;;;;16.80;99.90;;;;;;5083518;28;19917;-71
2022/10/26 04:16:53;;;;;;;;;;;16.70;99.90;;;;;;5076761;28;19916;-70
2022/10/26 04:19:18;;;;;;;;;;;16.70;99.90;;;;;;5091293;28;19943;-72
2022/10/26 04:21:44;;;;;;;;;;;16.70;99.90;;;;;;5083282;28;20263;-72
2022/10/26 04:24:11;;;;;;;;;;;16.70;99.90;;;;;;5067338;28;20287;-72
2022/10/26 04:26:36;;;;;;;;;;;16.70;99.90;;;;;;5067331;28;19967;-71
2022/10/26 04:29:05;;;;;;;;;;;16.60;99.90;;;;;;5048478;28;19916;-73
2022/10/26 04:31:31;;;;;;;;;;;16.60;99.90;;;;;;5066798;28;20015;-71
2022/10/26 04:33:57;;;;;;;;;;;16.70;99.90;;;;;;5067873;28;20366;-71
2022/10/26 04:36:22;;;;;;;;;;;16.60;99.90;;;;;;5066003;28;19959;-74
2022/10/26 04:38:48;;;;;;;;;;;16.60;99.90;;;;;;5068701;28;20283;-70
2022/10/26 04:41:14;;;;;;;;;;;16.70;99.90;;;;;;5068330;28;20330;-70
2022/10/26 04:43:40;;;;;;;;;;;16.70;99.90;;;;;;5067324;28;19966;-70
2022/10/26 04:46:06;;;;;;;;;;;16.60;99.90;;;;;;5066603;28;19920;-71
2022/10/26 04:48:32;;;;;;;;;;;16.70;99.90;;;;;;5066118;28;19931;-75
2022/10/26 04:50:58;;;;;;;;;;;16.70;99.90;;;;;;5066379;28;20111;-72
2022/10/26 04:53:24;;;;;;;;;;;16.80;99.90;;;;;;5065834;28;19916;-69
2022/10/26 04:55:55;;;;;;;;;;;16.70;99.90;;;;;;5067515;28;19927;-75
2022/10/26 04:58:20;;;;;;;;;;;16.70;99.90;;;;;;5069225;28;19974;-71
2022/10/26 05:00:46;;;;;;;;;;;16.80;99.90;;;;;;5063271;28;19928;-71
2022/10/26 05:03:12;;;;;;;;;;;16.70;99.90;;;;;;5065291;28;20418;-72
2022/10/26 05:05:37;;;;;;;;;;;16.70;99.90;;;;;;5067985;28;19912;-73
2022/10/26 05:08:03;;;;;;;;;;;16.60;99.90;;;;;;5067316;28;19932;-73
2022/10/26 05:10:29;;;;;;;;;;;16.60;99.90;;;;;;5066202;28;20497;-72
2022/10/26 05:12:55;;;;;;;;;;;16.60;99.90;;;;;;5066719;28;19938;-71
2022/10/26 05:15:21;;;;;;;;;;;16.60;99.90;;;;;;5064625;28;19920;-72
2022/10/26 05:17:53;;;;;;;;;;;16.60;99.90;;;;;;5067187;28;19912;-73
2022/10/26 05:20:19;;;;;;;;;;;16.60;99.90;;;;;;5064125;28;19916;-74
2022/10/26 05:22:51;;;;;;;;;;;16.60;99.90;;;;;;5059833;28;19912;-74
2022/10/26 05:25:17;;;;;;;;;;;16.60;99.90;;;;;;5057685;28;19925;-71
2022/10/26 05:27:42;;;;;;;;;;;16.60;99.90;;;;;;5069814;28;20285;-70
2022/10/26 05:30:08;;;;;;;;;;;16.60;99.90;;;;;;5067917;28;19921;-71
2022/10/26 05:32:34;;;;;;;;;;;16.60;99.90;;;;;;5066183;28;19924;-70
2022/10/26 05:35:00;;;;;;;;;;;16.60;99.90;;;;;;5045672;28;19963;-72
2022/10/26 05:37:28;;;;;;;;;;;16.60;99.90;;;;;;5066795;28;19920;-72
2022/10/26 05:39:54;;;;;;;;;;;16.60;99.90;;;;;;5066161;28;19912;-71
2022/10/26 05:42:20;;;;;;;;;;;16.60;99.90;;;;;;5066809;28;19919;-72
2022/10/26 05:44:46;;;;;;;;;;;16.60;99.90;;;;;;5067133;28;19916;-71
2022/10/26 05:47:11;;;;;;;;;;;16.50;99.90;;;;;;5067127;28;19935;-70
2022/10/26 05:49:37;;;;;;;;;;;16.50;99.90;;;;;;5066580;28;20007;-72
2022/10/26 05:52:03;;;;;;;;;;;16.60;99.90;;;;;;5066505;28;19913;-75
2022/10/26 05:54:29;;;;;;;;;;;16.60;99.90;;;;;;5065787;28;19917;-72
2022/10/26 05:56:55;;;;;;;;;;;16.60;99.90;;;;;;5067437;28;19917;-69
2022/10/26 05:59:21;;;;;;;;;;;16.60;99.90;;;;;;5065836;28;19913;-72
2022/10/26 06:01:47;;;;;;;;;;;16.60;99.90;;;;;;5067139;28;19920;-72
2022/10/26 06:04:22;;;;;;;;;;;16.60;99.90;;;;;;5064937;28;19913;-71
2022/10/26 06:06:51;;;;;;;;;;;16.60;99.90;;;;;;5065025;28;19913;-72
2022/10/26 06:09:17;;;;;;;;;;;16.70;99.90;;;;;;5063460;28;19935;-74
2022/10/26 06:11:43;;;;;;;;;;;16.70;99.90;;;;;;5068959;28;20362;-71
2022/10/26 06:14:09;;;;;;;;;;;16.80;99.90;;;;;;5078146;28;20957;-73
2022/10/26 06:16:44;;;;;;;;;;;16.70;99.90;;;;;;5067835;28;20370;-71
2022/10/26 06:19:28;;;;;;;;;;;16.70;99.90;;;;;;5056651;28;19927;-73
2022/10/26 06:21:57;;;;;;;;;;;16.90;99.90;;;;;;5078157;28;19912;-73
2022/10/26 06:24:43;;;;;;;;;;;17.10;99.90;;;;;;5088235;28;19912;-74
2022/10/26 06:27:44;;;;;;;;;;;17.10;99.90;;;;;;5077962;28;19916;-72
2022/10/26 06:30:10;;;;;;;;;;;17.10;99.90;;;;;;4978643;28;19926;-72
2022/10/26 06:32:38;;;;;;;;;;;17.10;99.90;;;;;;5067115;28;20381;-72
2022/10/26 06:35:27;;;;;;;;;;;17.20;99.90;;;;;;5073546;28;19920;-72
2022/10/26 06:37:54;;;;;;;;;;;17.20;99.90;;;;;;5065273;28;19912;-72
2022/10/26 06:40:20;;;;;;;;;;;17.20;99.90;;;;;;5076396;28;19913;-72
2022/10/26 06:42:46;;;;;;;;;;;17.10;99.90;;;;;;5075106;28;20101;-75
2022/10/26 06:45:15;;;;;;;;;;;17.20;99.90;;;;;;5076509;28;19913;-73
2022/10/26 06:47:41;;;;;;;;;;;17.20;99.90;;;;;;5072352;28;19908;-69
2022/10/26 06:50:07;;;;;;;;;;;17.20;99.90;;;;;;5070314;28;19951;-72
2022/10/26 06:52:36;;;;;;;;;;;17.20;99.90;;;;;;5094515;28;20015;-72
2022/10/26 06:55:03;;;;;;;;;;;17.10;99.90;;;;;;5084150;28;19913;-70
2022/10/26 06:57:36;;;;;;;;;;;17.20;99.90;;;;;;5083038;28;20305;-71
2022/10/26 07:00:02;;;;;;;;;;;17.30;99.90;;;;;;5075099;28;20409;-72
2022/10/26 07:02:28;;;;;;;;;;;17.40;99.90;;;;;;5073123;28;19920;-74
2022/10/26 07:04:54;;;;;;;;;;;17.30;99.90;;;;;;5076583;28;20080;-71
2022/10/26 07:07:27;;;;;;;;;;;17.30;99.90;;;;;;5066325;28;19912;-71
2022/10/26 07:09:56;;;;;;;;;;;17.40;99.90;;;;;;5074674;28;19920;-71
2022/10/26 07:12:24;;;;;;;;;;;17.50;99.90;;;;;;5079028;28;20079;-74
2022/10/26 07:14:50;;;;;;;;;;;17.50;99.90;;;;;;5075827;28;19921;-74
2022/10/26 07:17:16;;;;;;;;;;;17.70;99.90;;;;;;5066388;28;19920;-72
2022/10/26 07:19:45;;;;;;;;;;;17.60;99.90;;;;;;5077447;28;19912;-73
2022/10/26 07:22:10;;;;;;;;;;;17.70;99.90;;;;;;5076455;28;19977;-72
2022/10/26 07:24:36;;;;;;;;;;;17.70;99.90;;;;;;5084230;28;19975;-72
2022/10/26 07:27:02;;;;;;;;;;;17.60;99.90;;;;;;5076909;28;19912;-72
2022/10/26 07:29:30;;;;;;;;;;;17.60;99.90;;;;;;5073328;28;19939;-72
2022/10/26 07:31:56;;;;;;;;;;;17.70;99.90;;;;;;5075097;28;19920;-72
2022/10/26 07:34:22;;;;;;;;;;;17.70;99.90;;;;;;5071870;28;19935;-72
2022/10/26 07:36:47;;;;;;;;;;;17.80;99.90;;;;;;5076649;28;19920;-72
2022/10/26 07:39:13;;;;;;;;;;;17.90;99.90;;;;;;5060996;28;19935;-72
2022/10/26 07:41:39;;;;;;;;;;;18.00;99.90;;;;;;5073653;28;19922;-72
2022/10/26 07:44:05;;;;;;;;;;;18.00;99.90;;;;;;5076350;28;19951;-72
2022/10/26 07:46:30;;;;;;;;;;;18.00;99.90;;;;;;5071586;28;19913;-72
2022/10/26 07:48:56;;;;;;;;;;;18.00;99.90;;;;;;5073315;28;19917;-72
2022/10/26 07:51:22;;;;;;;;;;;18.10;99.90;;;;;;5070098;28;19912;-73
2022/10/26 07:53:48;;;;;;;;;;;18.00;99.90;;;;;;5072378;28;20374;-72
2022/10/26 07:56:15;;;;;;;;;;;18.20;99.90;;;;;;5070149;28;19970;-71
2022/10/26 07:58:41;;;;;;;;;;;18.30;99.90;;;;;;5074187;28;19912;-72
2022/10/26 08:01:08;;;;;;;;;;;18.30;99.90;;;;;;5064244;28;19912;-73
2022/10/26 08:03:34;;;;;;;;;;;18.40;99.90;;;;;;5076632;28;19916;-73
2022/10/26 08:06:00;;;;;;;;;;;18.60;99.90;;;;;;5063704;28;20297;-73
2022/10/26 08:08:25;;;;;;;;;;;18.70;99.90;;;;;;5076653;28;19923;-72
2022/10/26 08:10:51;;;;;;;;;;;18.70;99.90;;;;;;5090511;28;20354;-73
2022/10/26 08:13:17;;;;;;;;;;;18.70;99.90;;;;;;5079245;28;19944;-73
2022/10/26 08:15:43;;;;;;;;;;;18.70;99.90;;;;;;5100784;28;19908;-73
2022/10/26 08:18:09;;;;;;;;;;;18.80;99.90;;;;;;5099101;28;19916;-73
2022/10/26 08:20:35;;;;;;;;;;;18.80;99.90;;;;;;5078626;28;19912;-73
2022/10/26 08:23:04;;;;;;;;;;;18.70;99.90;;;;;;5080692;28;19931;-73
2022/10/26 08:25:31;;;;;;;;;;;18.70;99.90;;;;;;5077861;28;19909;-73
2022/10/26 08:28:03;;;;;;;;;;;18.80;99.90;;;;;;5062975;28;19909;-73
2022/10/26 08:30:32;;;;;;;;;;;18.80;99.90;;;;;;5071551;28;19912;-72
2022/10/26 08:33:07;;;;;;;;;;;18.90;99.90;;;;;;5108469;28;19916;-72
2022/10/26 08:35:36;;;;;;;;;;;19.00;99.90;;;;;;5109717;28;19915;-73
2022/10/26 08:38:02;;;;;;;;;;;19.00;99.90;;;;;;5077845;28;19920;-72
2022/10/26 08:40:30;;;;;;;;;;;19.10;99.90;;;;;;5082779;28;19912;-73
2022/10/26 08:43:11;;;;;;;;;;;19.20;99.90;;;;;;5068032;28;19920;-73
2022/10/26 08:45:44;;;;;;;;;;;19.40;99.90;;;;;;5078244;28;19912;-72
2022/10/26 08:48:12;;;;;;;;;;;19.60;99.90;;;;;;5075453;28;20073;-73
2022/10/26 08:50:44;;;;;;;;;;;19.80;99.90;;;;;;5076207;28;20301;-72
2022/10/26 08:53:19;;;;;;;;;;;20.00;99.90;;;;;;5090760;28;19916;-73
2022/10/26 08:55:46;;;;;;;;;;;20.10;99.90;;;;;;5082103;28;19944;-73
2022/10/26 08:58:14;;;;;;;;;;;20.10;99.90;;;;;;5080468;28;19913;-73
2022/10/26 09:00:39;;;;;;;;;;;20.30;99.90;;;;;;5069130;28;19989;-72
2022/10/26 09:03:12;;;;;;;;;;;20.40;99.90;;;;;;5088681;28;19916;-73
2022/10/26 09:05:40;;;;;;;;;;;20.60;99.90;;;;;;5072535;28;19916;-73
2022/10/26 09:08:30;;;;;;;;;;;20.70;99.90;;;;;;5064168;28;19916;-73
2022/10/26 09:11:10;;;;;;;;;;;20.80;99.90;;;;;;5063748;28;19920;-72
2022/10/26 09:13:54;;;;;;;;;;;21.00;99.90;;;;;;5072741;28;19912;-71
2022/10/26 09:16:40;;;;;;;;;;;21.10;99.90;;;;;;5067459;28;19913;-71
2022/10/26 09:19:25;;;;;;;;;;;21.20;99.90;;;;;;5074625;28;19984;-71
2022/10/26 09:22:06;;;;;;;;;;;21.30;99.90;;;;;;5070336;28;20003;-75
2022/10/26 09:24:33;;;;;;;;;;;21.30;99.90;;;;;;5071186;28;19913;-77
2022/10/26 09:27:13;;;;;;;;;;;21.40;99.90;;;;;;5075246;28;19998;-75
2022/10/26 09:29:43;;;;;;;;;;;21.40;99.90;;;;;;5053660;28;20011;-75
2022/10/26 09:32:17;;;;;;;;;;;21.50;99.90;;;;;;5057637;28;20160;-76
2022/10/26 09:34:57;;;;;;;;;;;21.70;99.90;;;;;;5061358;28;20401;-74
2022/10/26 09:37:35;;;;;;;;;;;21.80;99.90;;;;;;5071409;28;19919;-77
2022/10/26 09:40:12;;;;;;;;;;;21.80;99.90;;;;;;5072494;28;19963;-75
2022/10/26 09:42:43;;;;;;;;;;;21.70;99.90;;;;;;5073410;28;19979;-75
2022/10/26 09:45:14;;;;;;;;;;;21.60;99.90;;;;;;5075160;28;19921;-75
2022/10/26 09:47:42;;;;;;;;;;;21.40;99.90;;;;;;5078034;28;19963;-76
2022/10/26 09:50:08;;;;;;;;;;;21.40;99.90;;;;;;5077935;28;19913;-74
2022/10/26 09:52:34;;;;;;;;;;;21.40;99.90;;;;;;5059555;28;20382;-75
2022/10/26 09:55:00;;;;;;;;;;;21.40;99.90;;;;;;5072020;28;19919;-75
2022/10/26 09:57:26;;;;;;;;;;;21.30;99.90;;;;;;5059621;28;19909;-75
2022/10/26 09:59:54;;;;;;;;;;;21.20;99.90;;;;;;5066938;28;19912;-76
2022/10/26 10:02:32;;;;;;;;;;;21.10;99.90;;;;;;5059998;28;20409;-75
2022/10/26 10:04:58;;;;;;;;;;;21.00;99.90;;;;;;5074761;28;20031;-75
2022/10/26 10:07:24;;;;;;;;;;;20.80;99.90;;;;;;5074879;28;20410;-74
2022/10/26 10:10:07;;;;;;;;;;;20.80;99.90;;;;;;5074239;28;19979;-75
2022/10/26 10:12:33;;;;;;;;;;;20.60;99.90;;;;;;5088631;28;19919;-75
2022/10/26 10:14:58;;;;;;;;;;;20.60;99.90;;;;;;5072765;28;19916;-75
2022/10/26 10:17:25;;;;;;;;;;;20.50;99.90;;;;;;5075523;28;19921;-74
2022/10/26 10:19:51;;;;;;;;;;;20.30;99.90;;;;;;5063456;28;19913;-74
2022/10/26 10:22:23;;;;;;;;;;;20.40;99.90;;;;;;5080826;28;19919;-74
2022/10/26 10:24:56;;;;;;;;;;;20.40;99.90;;;;;;5072758;28;19916;-75
2022/10/26 10:27:22;;;;;;;;;;;20.40;99.90;;;;;;5075456;28;19959;-74
2022/10/26 10:29:48;;;;;;;;;;;20.50;99.90;;;;;;5082905;28;19921;-75
2022/10/26 10:32:22;;;;;;;;;;;20.60;99.90;;;;;;5070980;28;19964;-75
2022/10/26 10:34:48;;;;;;;;;;;20.60;99.90;;;;;;5077040;28;19967;-75
2022/10/26 10:37:25;;;;;;;;;;;20.60;99.90;;;;;;5076678;28;19919;-74
2022/10/26 10:39:55;;;;;;;;;;;20.60;99.90;;;;;;5086752;28;19967;-74
2022/10/26 10:42:22;;;;;;;;;;;20.60;99.90;;;;;;5083352;28;19912;-72
2022/10/26 10:44:51;;;;;;;;;;;20.60;99.90;;;;;;5062044;28;20358;-75
2022/10/26 10:47:20;;;;;;;;;;;20.60;99.90;;;;;;5074524;28;19944;-72
2022/10/26 10:50:12;;;;;;;;;;;20.60;99.90;;;;;;5056657;28;19923;-72
2022/10/26 10:52:37;;;;;;;;;;;20.70;99.90;;;;;;5061419;28;19913;-72
2022/10/26 10:55:14;;;;;;;;;;;20.80;99.90;;;;;;5078963;28;20539;-72
2022/10/26 10:57:55;;;;;;;;;;;20.80;99.90;;;;;;5082470;28;19938;-72
2022/10/26 11:00:21;;;;;;;;;;;20.70;99.90;;;;;;5068295;28;19919;-73
2022/10/26 11:03:06;;;;;;;;;;;20.80;99.90;;;;;;5082223;28;20003;-72
2022/10/26 11:05:58;;;;;;;;;;;20.80;99.90;;;;;;5072398;28;19919;-72
2022/10/26 11:08:41;;;;;;;;;;;20.80;99.90;;;;;;5060771;28;20445;-72
2022/10/26 11:11:09;;;;;;;;;;;20.80;99.90;;;;;;5077148;28;19912;-73
2022/10/26 11:13:44;;;;;;;;;;;20.80;99.90;;;;;;5080588;28;19939;-72
2022/10/26 11:16:15;;;;;;;;;;;20.70;99.90;;;;;;5076260;28;19922;-72
2022/10/26 11:18:48;;;;;;;;;;;20.80;99.90;;;;;;5075399;28;19923;-72
2022/10/26 11:21:36;;;;;;;;;;;20.80;99.90;;;;;;5085614;28;19923;-73
2022/10/26 11:24:18;;;;;;;;;;;20.80;99.90;;;;;;5079330;28;20306;-73
2022/10/26 11:26:51;;;;;;;;;;;20.80;99.90;;;;;;5070329;28;19952;-72
2022/10/26 11:29:30;;;;;;;;;;;20.80;99.90;;;;;;5072382;28;20333;-72
2022/10/26 11:31:59;;;;;;;;;;;20.70;99.90;;;;;;5084370;28;19916;-72
2022/10/26 11:34:42;;;;;;;;;;;20.80;99.90;;;;;;5086694;28;19912;-72
2022/10/26 11:37:14;;;;;;;;;;;20.70;99.90;;;;;;5089430;28;19943;-72
2022/10/26 11:39:52;;;;;;;;;;;20.70;99.90;;;;;;5083333;28;20029;-72
2022/10/26 11:42:21;;;;;;;;;;;20.70;99.90;;;;;;5079012;28;19909;-73
2022/10/26 11:45:00;;;;;;;;;;;20.70;99.90;;;;;;5074548;28;19912;-72
2022/10/26 11:47:52;;;;;;;;;;;20.70;99.90;;;;;;5073805;28;19916;-72
2022/10/26 11:50:23;;;;;;;;;;;20.70;99.90;;;;;;5072019;28;19970;-72
2022/10/26 11:52:52;;;;;;;;;;;20.70;99.90;;;;;;5075253;28;19919;-72
2022/10/26 11:55:19;;;;;;;;;;;20.70;99.90;;;;;;5071038;28;19928;-72
2022/10/26 11:57:45;;;;;;;;;;;20.70;99.90;;;;;;5074502;28;19958;-73
2022/10/26 12:00:11;;;;;;;;;;;20.70;99.90;;;;;;5068004;28;19942;-72
2022/10/26 12:02:39;;;;;;;;;;;20.70;99.90;;;;;;5079517;28;20413;-72
2022/10/26 12:05:07;;;;;;;;;;;20.80;99.90;;;;;;5075472;28;19912;-72
2022/10/26 12:07:35;;;;;;;;;;;20.90;99.90;;;;;;5074227;28;20418;-72
2022/10/26 12:10:02;;;;;;;;;;;21.00;99.90;;;;;;5076628;28;19916;-72
2022/10/26 12:12:37;;;;;;;;;;;21.00;99.90;;;;;;5079810;28;19966;-72
2022/10/26 12:15:09;;;;;;;;;;;21.10;99.90;;;;;;5077847;28;19908;-72
2022/10/26 12:17:38;;;;;;;;;;;21.10;99.90;;;;;;5078774;28;19952;-72
2022/10/26 12:20:27;;;;;;;;;;;21.10;99.90;;;;;;5078764;28;19931;-72
2022/10/26 12:22:53;;;;;;;;;;;21.10;99.90;;;;;;5052740;28;19923;-72
2022/10/26 12:25:20;;;;;;;;;;;21.10;99.90;;;;;;5074572;28;19976;-75
2022/10/26 12:27:45;;;;;;;;;;;21.10;99.90;;;;;;5074438;28;19913;-71
2022/10/26 12:30:17;;;;;;;;;;;21.20;99.90;;;;;;5075398;28;19923;-72
2022/10/26 12:32:42;;;;;;;;;;;21.10;99.90;;;;;;5082360;28;19970;-73
2022/10/26 12:35:27;;;;;;;;;;;21.10;99.90;;;;;;5077642;28;19916;-73
2022/10/26 12:37:52;;;;;;;;;;;21.00;99.90;;;;;;5074291;28;20007;-72
2022/10/26 12:40:31;;;;;;;;;;;21.00;99.90;;;;;;5075274;28;19955;-73
2022/10/26 12:42:57;;;;;;;;;;;21.00;99.90;;;;;;5076031;28;19912;-73
2022/10/26 12:45:23;;;;;;;;;;;21.10;99.90;;;;;;5081022;28;19919;-74
2022/10/26 12:47:49;;;;;;;;;;;21.10;99.90;;;;;;5078151;28;20337;-73
2022/10/26 12:50:14;;;;;;;;;;;21.00;99.90;;;;;;5074452;28;19962;-72
2022/10/26 12:52:57;;;;;;;;;;;21.10;99.90;;;;;;5071623;28;19912;-73
2022/10/26 12:55:38;;;;;;;;;;;21.10;99.90;;;;;;5070678;28;19944;-74
2022/10/26 12:58:13;;;;;;;;;;;21.00;99.90;;;;;;5069649;28;20297;-72
2022/10/26 13:00:47;;;;;;;;;;;21.10;99.90;;;;;;5065340;28;19944;-73
2022/10/26 13:03:25;;;;;;;;;;;21.00;99.90;;;;;;5061592;28;20077;-73
2022/10/26 13:06:06;;;;;;;;;;;21.00;99.90;;;;;;5070794;28;19909;-73
2022/10/26 13:08:39;;;;;;;;;;;21.00;99.90;;;;;;5051347;28;19954;-72
2022/10/26 13:11:16;;;;;;;;;;;21.10;99.90;;;;;;5077834;28;19912;-73
2022/10/26 13:13:42;;;;;;;;;;;21.10;99.90;;;;;;5068535;28;19924;-72
2022/10/26 13:16:12;;;;;;;;;;;21.00;99.90;;;;;;5080599;28;19913;-73
2022/10/26 13:18:46;;;;;;;;;;;21.00;99.90;;;;;;5073172;28;19970;-74
2022/10/26 13:21:13;;;;;;;;;;;21.00;99.90;;;;;;5076261;28;19912;-73
2022/10/26 13:24:05;;;;;;;;;;;21.00;99.90;;;;;;5067746;28;19920;-73
2022/10/26 13:26:31;;;;;;;;;;;20.80;99.90;;;;;;5074363;28;19912;-72
2022/10/26 13:29:01;;;;;;;;;;;20.90;99.90;;;;;;5077823;28;19946;-72
2022/10/26 13:31:33;;;;;;;;;;;20.90;99.90;;;;;;5073402;28;20401;-72
2022/10/26 13:34:01;;;;;;;;;;;20.90;99.90;;;;;;5090285;28;19993;-72
2022/10/26 13:36:37;;;;;;;;;;;20.90;99.90;;;;;;5070879;28;19916;-72
2022/10/26 13:39:05;;;;;;;;;;;20.90;99.90;;;;;;5087665;28;19916;-73
2022/10/26 13:41:38;;;;;;;;;;;20.90;99.90;;;;;;5083216;28;20010;-70
2022/10/26 13:44:05;;;;;;;;;;;20.90;99.90;;;;;;5079756;28;19956;-72
2022/10/26 13:46:33;;;;;;;;;;;20.80;99.90;;;;;;5070499;28;19919;-72
2022/10/26 13:49:07;;;;;;;;;;;20.70;99.90;;;;;;5071516;28;20002;-72
2022/10/26 13:51:42;;;;;;;;;;;20.70;99.90;;;;;;5076773;28;19913;-72
2022/10/26 13:54:37;;;;;;;;;;;20.60;99.90;;;;;;5073247;28;19917;-73
2022/10/26 13:57:18;;;;;;;;;;;20.70;99.90;;;;;;5051077;28;19921;-72
2022/10/26 13:59:44;;;;;;;;;;;20.80;99.90;;;;;;5073253;28;19913;-71
2022/10/26 14:02:37;;;;;;;;;;;21.00;99.90;;;;;;5080683;28;19936;-72
2022/10/26 14:05:07;;;;;;;;;;;21.00;99.90;;;;;;5082138;28;19927;-71
2022/10/26 14:07:36;;;;;;;;;;;20.90;99.90;;;;;;5077742;28;19927;-72
2022/10/26 14:10:06;;;;;;;;;;;21.00;99.90;;;;;;5082278;28;19964;-72
2022/10/26 14:12:35;;;;;;;;;;;21.00;99.90;;;;;;5084937;28;19919;-71
2022/10/26 14:15:05;;;;;;;;;;;21.00;99.90;;;;;;5080579;28;20279;-72
2022/10/26 14:17:31;;;;;;;;;;;21.10;99.90;;;;;;5072684;28;19919;-72
2022/10/26 14:19:57;;;;;;;;;;;21.10;99.90;;;;;;5096178;28;19984;-72
2022/10/26 14:22:27;;;;;;;;;;;21.10;99.90;;;;;;5080126;28;19913;-72
2022/10/26 14:24:58;;;;;;;;;;;21.10;99.90;;;;;;5097276;28;19935;-71
2022/10/26 14:27:25;;;;;;;;;;;21.10;99.90;;;;;;5080673;28;19912;-72
2022/10/26 14:29:58;;;;;;;;;;;21.20;99.90;;;;;;5093829;28;19916;-72
2022/10/26 14:32:30;;;;;;;;;;;21.10;99.90;;;;;;5095276;28;19926;-72